createdAt,value
2019-04-10T00:00:44.421Z,0.00
2019-04-10T00:01:44.649Z,0.00
2019-04-10T00:02:43.947Z,0.00
2019-04-10T00:03:44.052Z,0.00
2019-04-10T00:04:43.804Z,0.00
2019-04-10T00:05:44.521Z,0.00
2019-04-10T00:06:43.845Z,0.00
2019-04-10T00:07:43.891Z,0.00
2019-04-10T00:08:44.163Z,0.00
2019-04-10T00:09:43.749Z,0.00
2019-04-10T00:10:43.883Z,0.00
2019-04-10T00:11:43.729Z,0.00
2019-04-10T00:12:43.718Z,0.00
2019-04-10T00:13:44.869Z,0.00
2019-04-10T00:14:43.708Z,0.00
2019-04-10T00:15:43.685Z,0.00
2019-04-10T00:16:44.573Z,0.00
2019-04-10T00:17:43.677Z,0.00
2019-04-10T00:18:44.295Z,0.00
2019-04-10T00:19:43.816Z,0.00
2019-04-10T00:20:44.789Z,0.00
2019-04-10T00:21:43.625Z,0.00
2019-04-10T00:22:44.491Z,0.00
2019-04-10T00:23:43.754Z,0.00
2019-04-10T00:24:44.206Z,0.00
2019-04-10T00:25:43.586Z,0.00
2019-04-10T00:26:43.568Z,0.00
2019-04-10T00:27:43.576Z,0.00
2019-04-10T00:28:43.674Z,0.00
2019-04-10T00:29:44.594Z,0.00
2019-04-10T00:30:43.544Z,0.00
2019-04-10T00:31:44.472Z,0.00
2019-04-10T00:32:43.938Z,0.00
2019-04-10T00:33:43.505Z,0.00
2019-04-10T00:34:43.482Z,0.00
2019-04-10T00:35:43.816Z,0.00
2019-04-10T00:36:43.643Z,0.00
2019-04-10T00:37:43.478Z,0.00
2019-04-10T00:38:44.182Z,0.00
2019-04-10T00:39:44.457Z,0.00
2019-04-10T00:40:43.758Z,0.00
2019-04-10T00:41:44.256Z,0.00
2019-04-10T00:42:43.402Z,0.00
2019-04-10T00:43:43.558Z,0.00
2019-04-10T00:44:43.855Z,0.00
2019-04-10T00:45:43.997Z,0.00
2019-04-10T00:46:43.360Z,0.00
2019-04-10T00:47:43.481Z,0.00
2019-04-10T00:48:43.933Z,0.00
2019-04-10T00:49:44.076Z,0.00
2019-04-10T00:50:44.482Z,0.00
2019-04-10T00:51:43.647Z,0.00
2019-04-10T00:52:44.175Z,0.00
2019-04-10T00:53:43.539Z,0.00
2019-04-10T00:54:43.518Z,0.00
2019-04-10T00:55:44.074Z,0.00
2019-04-10T00:56:43.396Z,0.00
2019-04-10T00:57:43.236Z,0.00
2019-04-10T00:58:43.743Z,0.00
2019-04-10T00:59:44.154Z,0.00
2019-04-10T01:00:43.447Z,0.00
2019-04-10T01:01:43.709Z,0.00
2019-04-10T01:02:43.185Z,0.00
2019-04-10T01:03:43.672Z,0.00
2019-04-10T01:04:43.178Z,0.00
2019-04-10T01:05:43.746Z,0.00
2019-04-10T01:06:44.148Z,0.00
2019-04-10T01:07:44.611Z,0.00
2019-04-10T01:08:43.122Z,0.00
2019-04-10T01:09:43.757Z,0.00
2019-04-10T01:10:44.171Z,0.00
2019-04-10T01:11:43.390Z,0.00
2019-04-10T01:12:44.029Z,0.00
2019-04-10T01:13:43.181Z,0.00
2019-04-10T01:14:43.065Z,0.00
2019-04-10T01:15:43.042Z,0.00
2019-04-10T01:16:43.968Z,0.00
2019-04-10T01:17:43.025Z,0.00
2019-04-10T01:18:43.605Z,0.00
2019-04-10T01:19:43.897Z,0.00
2019-04-10T01:20:43.888Z,0.00
2019-04-10T01:21:43.016Z,0.00
2019-04-10T01:22:43.459Z,0.00
2019-04-10T01:23:42.969Z,0.00
2019-04-10T01:24:43.893Z,0.00
2019-04-10T01:25:42.992Z,0.00
2019-04-10T01:26:43.324Z,0.00
2019-04-10T01:27:42.936Z,0.00
2019-04-10T01:28:42.936Z,0.00
2019-04-10T01:29:43.924Z,0.00
2019-04-10T01:30:42.883Z,0.00
2019-04-10T01:31:43.521Z,0.00
2019-04-10T01:32:43.867Z,0.00
2019-04-10T01:33:43.078Z,0.00
2019-04-10T01:34:43.394Z,0.00
2019-04-10T01:35:42.827Z,0.00
2019-04-10T01:36:43.804Z,0.00
2019-04-10T01:37:49.522Z,0.00
2019-04-10T01:38:43.851Z,0.00
2019-04-10T01:39:42.808Z,0.00
2019-04-10T01:40:43.443Z,0.00
2019-04-10T01:41:43.614Z,0.00
2019-04-10T01:42:42.758Z,0.00
2019-04-10T01:43:43.375Z,0.00
2019-04-10T01:44:42.784Z,0.00
2019-04-10T01:45:43.689Z,0.00
2019-04-10T01:46:42.708Z,0.00
2019-04-10T01:47:43.489Z,0.00
2019-04-10T01:48:42.690Z,0.00
2019-04-10T01:49:42.704Z,0.00
2019-04-10T01:50:42.682Z,0.00
2019-04-10T01:51:43.515Z,0.00
2019-04-10T01:52:42.646Z,0.00
2019-04-10T01:53:42.635Z,0.00
2019-04-10T01:54:44.586Z,0.00
2019-04-10T01:55:42.985Z,0.00
2019-04-10T01:56:42.604Z,0.00
2019-04-10T01:57:42.598Z,0.00
2019-04-10T01:58:43.407Z,0.00
2019-04-10T01:59:42.568Z,0.00
2019-04-10T02:00:42.578Z,0.00
2019-04-10T02:01:42.928Z,0.00
2019-04-10T02:02:42.544Z,0.00
2019-04-10T02:03:42.526Z,0.00
2019-04-10T02:04:42.524Z,0.00
2019-04-10T02:05:42.869Z,0.00
2019-04-10T02:06:43.245Z,0.00
2019-04-10T02:07:42.485Z,0.00
2019-04-10T02:08:42.475Z,0.00
2019-04-10T02:09:43.322Z,0.00
2019-04-10T02:10:42.588Z,0.00
2019-04-10T02:11:42.470Z,0.00
2019-04-10T02:12:43.693Z,0.00
2019-04-10T02:13:43.230Z,0.00
2019-04-10T02:14:42.603Z,0.00
2019-04-10T02:15:42.421Z,0.00
2019-04-10T02:16:43.212Z,0.00
2019-04-10T02:17:42.376Z,0.00
2019-04-10T02:18:42.367Z,0.00
2019-04-10T02:19:42.678Z,0.00
2019-04-10T02:20:43.149Z,0.00
2019-04-10T02:21:42.344Z,0.00
2019-04-10T02:22:42.320Z,0.00
2019-04-10T02:23:42.702Z,0.00
2019-04-10T02:24:43.074Z,0.00
2019-04-10T02:25:43.185Z,0.00
2019-04-10T02:26:43.394Z,0.00
2019-04-10T02:27:42.687Z,0.00
2019-04-10T02:28:42.963Z,0.00
2019-04-10T02:29:42.246Z,0.00
2019-04-10T02:30:43.764Z,0.00
2019-04-10T02:31:44.047Z,0.00
2019-04-10T02:32:45.215Z,0.00
2019-04-10T02:33:43.204Z,0.00
2019-04-10T02:34:43.697Z,0.00
2019-04-10T02:35:43.480Z,0.00
2019-04-10T02:36:42.622Z,0.00
2019-04-10T02:37:43.408Z,0.00
2019-04-10T02:38:54.519Z,0.00
2019-04-10T02:39:47.948Z,0.00
2019-04-10T02:40:43.424Z,0.00
2019-04-10T02:41:43.907Z,0.00
2019-04-10T02:42:43.145Z,0.00
2019-04-10T02:43:43.015Z,0.00
2019-04-10T02:44:43.907Z,0.00
2019-04-10T02:45:44.240Z,0.00
2019-04-10T02:46:42.063Z,0.00
2019-04-10T02:47:43.238Z,0.00
2019-04-10T02:48:43.177Z,0.00
2019-04-10T02:49:42.543Z,0.00
2019-04-10T02:50:43.001Z,0.00
2019-04-10T02:51:43.264Z,0.00
2019-04-10T02:52:43.236Z,0.00
2019-04-10T02:53:43.701Z,0.00
2019-04-10T02:54:43.531Z,0.00
2019-04-10T02:55:43.168Z,0.00
2019-04-10T02:56:43.363Z,0.00
2019-04-10T02:57:43.494Z,0.00
2019-04-10T02:58:42.694Z,0.00
2019-04-10T02:59:43.188Z,0.00
2019-04-10T03:00:42.182Z,0.00
2019-04-10T03:01:41.914Z,0.00
2019-04-10T03:02:42.128Z,0.00
2019-04-10T03:03:42.457Z,0.00
2019-04-10T03:04:42.512Z,0.00
2019-04-10T03:05:42.642Z,0.00
2019-04-10T03:06:42.806Z,0.00
2019-04-10T03:07:42.279Z,0.00
2019-04-10T03:08:58.963Z,0.00
2019-04-10T03:09:58.903Z,0.00
2019-04-10T03:10:49.791Z,0.00
2019-04-10T03:11:43.854Z,0.00
2019-04-10T03:12:41.789Z,0.00
2019-04-10T03:13:42.983Z,0.00
2019-04-10T03:14:45.230Z,0.00
2019-04-10T03:15:43.457Z,0.00
2019-04-10T03:16:41.837Z,0.00
2019-04-10T03:17:42.097Z,0.00
2019-04-10T03:18:41.722Z,0.00
2019-04-10T03:19:41.712Z,0.00
2019-04-10T03:20:42.740Z,0.00
2019-04-10T03:21:42.943Z,0.00
2019-04-10T03:22:41.678Z,0.00
2019-04-10T03:23:41.975Z,0.00
2019-04-10T03:24:41.656Z,0.00
2019-04-10T03:25:41.646Z,0.00
2019-04-10T03:26:41.637Z,0.00
2019-04-10T03:27:42.550Z,0.00
2019-04-10T03:28:41.633Z,0.00
2019-04-10T03:29:42.236Z,0.00
2019-04-10T03:30:41.803Z,0.00
2019-04-10T03:31:41.766Z,0.00
2019-04-10T03:32:47.714Z,0.00
2019-04-10T03:33:47.056Z,0.00
2019-04-10T03:34:43.924Z,0.00
2019-04-10T03:35:41.556Z,0.00
2019-04-10T03:36:41.545Z,0.00
2019-04-10T03:37:42.485Z,0.00
2019-04-10T03:38:54.521Z,0.00
2019-04-10T03:39:42.674Z,0.00
2019-04-10T03:40:41.758Z,0.00
2019-04-10T03:41:42.185Z,0.00
2019-04-10T03:42:41.466Z,0.00
2019-04-10T03:43:41.697Z,0.00
2019-04-10T03:44:41.442Z,0.00
2019-04-10T03:45:41.427Z,0.00
2019-04-10T03:46:41.433Z,0.00
2019-04-10T03:47:41.866Z,0.00
2019-04-10T03:48:41.398Z,0.00
2019-04-10T03:49:42.256Z,0.00
2019-04-10T03:50:41.637Z,0.00
2019-04-10T03:51:41.398Z,0.00
2019-04-10T03:52:41.362Z,0.00
2019-04-10T03:53:42.451Z,0.00
2019-04-10T03:54:41.346Z,0.00
2019-04-10T03:55:41.335Z,0.00
2019-04-10T03:56:42.253Z,0.00
2019-04-10T03:57:41.326Z,0.00
2019-04-10T03:58:41.924Z,0.00
2019-04-10T03:59:42.046Z,0.00
2019-04-10T04:00:41.272Z,0.00
2019-04-10T04:01:41.268Z,0.00
2019-04-10T04:02:42.120Z,0.00
2019-04-10T04:03:41.237Z,0.00
2019-04-10T04:04:41.761Z,0.00
2019-04-10T04:05:41.215Z,0.00
2019-04-10T04:06:42.014Z,0.00
2019-04-10T04:07:41.223Z,0.00
2019-04-10T04:08:41.212Z,0.00
2019-04-10T04:09:41.865Z,0.00
2019-04-10T04:10:41.162Z,0.00
2019-04-10T04:11:41.977Z,0.00
2019-04-10T04:12:41.165Z,0.00
2019-04-10T04:13:41.741Z,0.00
2019-04-10T04:14:41.119Z,0.00
2019-04-10T04:15:42.122Z,0.00
2019-04-10T04:16:41.529Z,0.00
2019-04-10T04:17:41.163Z,0.00
2019-04-10T04:18:41.493Z,0.00
2019-04-10T04:19:41.858Z,0.00
2019-04-10T04:20:41.285Z,0.00
2019-04-10T04:21:41.815Z,0.00
2019-04-10T04:22:41.202Z,4.00
2019-04-10T04:23:41.023Z,4.00
2019-04-10T04:24:41.960Z,4.00
2019-04-10T04:25:41.003Z,0.00
2019-04-10T04:26:40.992Z,4.00
2019-04-10T04:27:41.977Z,4.00
2019-04-10T04:28:41.855Z,4.00
2019-04-10T04:29:41.345Z,8.00
2019-04-10T04:30:41.932Z,4.00
2019-04-10T04:31:41.922Z,8.00
2019-04-10T04:32:41.784Z,8.00
2019-04-10T04:33:41.128Z,12.00
2019-04-10T04:34:40.905Z,12.00
2019-04-10T04:35:40.919Z,12.00
2019-04-10T04:36:40.951Z,16.00
2019-04-10T04:37:40.890Z,20.00
2019-04-10T04:38:41.059Z,20.00
2019-04-10T04:39:40.852Z,20.00
2019-04-10T04:40:41.980Z,24.00
2019-04-10T04:41:40.837Z,28.00
2019-04-10T04:42:40.848Z,28.00
2019-04-10T04:43:43.127Z,28.00
2019-04-10T04:44:40.810Z,32.00
2019-04-10T04:45:40.789Z,32.00
2019-04-10T04:46:40.802Z,32.00
2019-04-10T04:47:41.262Z,36.00
2019-04-10T04:48:41.218Z,40.00
2019-04-10T04:49:40.744Z,48.00
2019-04-10T04:50:41.633Z,52.00
2019-04-10T04:51:41.687Z,56.00
2019-04-10T04:52:41.194Z,64.00
2019-04-10T04:53:41.805Z,72.00
2019-04-10T04:54:41.466Z,80.00
2019-04-10T04:55:40.688Z,92.00
2019-04-10T04:56:40.678Z,100.00
2019-04-10T04:57:41.093Z,108.00
2019-04-10T04:58:40.673Z,116.00
2019-04-10T04:59:40.724Z,128.00
2019-04-10T05:00:41.626Z,144.00
2019-04-10T05:01:40.640Z,160.00
2019-04-10T05:02:40.607Z,176.00
2019-04-10T05:03:40.621Z,192.00
2019-04-10T05:04:41.461Z,204.00
2019-04-10T05:05:41.174Z,216.00
2019-04-10T05:06:41.652Z,232.00
2019-04-10T05:07:41.695Z,244.00
2019-04-10T05:08:40.541Z,252.00
2019-04-10T05:09:41.839Z,268.00
2019-04-10T05:10:40.517Z,280.00
2019-04-10T05:11:40.634Z,296.00
2019-04-10T05:12:40.891Z,308.00
2019-04-10T05:13:40.496Z,316.00
2019-04-10T05:14:40.501Z,324.00
2019-04-10T05:15:40.804Z,348.00
2019-04-10T05:16:41.562Z,376.00
2019-04-10T05:17:41.481Z,392.00
2019-04-10T05:18:40.435Z,408.00
2019-04-10T05:19:40.577Z,432.00
2019-04-10T05:20:46.009Z,464.00
2019-04-10T05:21:41.546Z,488.00
2019-04-10T05:22:41.529Z,512.00
2019-04-10T05:23:40.634Z,532.00
2019-04-10T05:24:40.481Z,532.00
2019-04-10T05:25:41.411Z,532.00
2019-04-10T05:26:40.583Z,540.00
2019-04-10T05:27:41.322Z,576.00
2019-04-10T05:28:40.330Z,608.00
2019-04-10T05:29:40.893Z,640.00
2019-04-10T05:30:41.119Z,664.00
2019-04-10T05:31:40.530Z,688.00
2019-04-10T05:32:40.321Z,708.00
2019-04-10T05:33:40.768Z,728.00
2019-04-10T05:34:40.474Z,744.00
2019-04-10T05:35:40.258Z,764.00
2019-04-10T05:36:40.262Z,792.00
2019-04-10T05:37:40.236Z,832.00
2019-04-10T05:38:40.219Z,864.00
2019-04-10T05:39:46.117Z,888.00
2019-04-10T05:40:42.203Z,908.00
2019-04-10T05:41:40.212Z,932.00
2019-04-10T05:42:40.175Z,960.00
2019-04-10T05:43:40.175Z,972.00
2019-04-10T05:44:40.249Z,972.00
2019-04-10T05:45:40.188Z,952.00
2019-04-10T05:46:40.930Z,940.00
2019-04-10T05:47:40.120Z,940.00
2019-04-10T05:48:40.120Z,956.00
2019-04-10T05:49:40.103Z,956.00
2019-04-10T05:50:40.091Z,916.00
2019-04-10T05:51:40.083Z,904.00
2019-04-10T05:52:40.077Z,948.00
2019-04-10T05:53:40.861Z,1020.00
2019-04-10T05:54:40.054Z,1092.00
2019-04-10T05:55:40.693Z,1148.00
2019-04-10T05:56:40.611Z,1188.00
2019-04-10T05:57:40.661Z,1216.00
2019-04-10T05:58:40.850Z,1252.00
2019-04-10T05:59:40.460Z,1276.00
2019-04-10T06:00:40.996Z,1288.00
2019-04-10T06:01:41.729Z,1284.00
2019-04-10T06:02:39.967Z,1272.00
2019-04-10T06:03:40.833Z,1272.00
2019-04-10T06:04:40.174Z,1280.00
2019-04-10T06:05:40.450Z,1304.00
2019-04-10T06:06:40.898Z,1332.00
2019-04-10T06:07:39.916Z,1360.00
2019-04-10T06:08:39.900Z,1372.00
2019-04-10T06:09:52.004Z,1368.00
2019-04-10T06:10:41.609Z,1344.00
2019-04-10T06:11:42.873Z,1296.00
2019-04-10T06:12:39.871Z,1256.00
2019-04-10T06:13:40.893Z,1228.00
2019-04-10T06:14:40.102Z,1212.00
2019-04-10T06:15:39.827Z,1216.00
2019-04-10T06:16:40.571Z,1204.00
2019-04-10T06:17:40.657Z,1184.00
2019-04-10T06:18:39.789Z,1164.00
2019-04-10T06:19:40.567Z,1120.00
2019-04-10T06:20:39.779Z,1024.00
2019-04-10T06:21:39.823Z,936.00
2019-04-10T06:22:40.853Z,912.00
2019-04-10T06:23:39.738Z,908.00
2019-04-10T06:24:40.495Z,904.00
2019-04-10T06:25:41.948Z,920.00
2019-04-10T06:26:39.714Z,952.00
2019-04-10T06:27:40.762Z,1028.00
2019-04-10T06:28:40.128Z,1144.00
2019-04-10T06:29:39.673Z,1292.00
2019-04-10T06:30:39.823Z,1452.00
2019-04-10T06:31:39.653Z,1616.00
2019-04-10T06:32:39.825Z,1736.00
2019-04-10T06:33:40.298Z,1812.00
2019-04-10T06:34:40.753Z,1824.00
2019-04-10T06:35:39.927Z,1772.00
2019-04-10T06:36:39.714Z,1712.00
2019-04-10T06:37:40.098Z,1692.00
2019-04-10T06:38:39.598Z,1680.00
2019-04-10T06:39:41.992Z,1700.00
2019-04-10T06:40:39.747Z,1740.00
2019-04-10T06:41:39.546Z,1764.00
2019-04-10T06:42:48.557Z,1764.00
2019-04-10T06:43:41.243Z,1752.00
2019-04-10T06:44:39.514Z,1748.00
2019-04-10T06:45:39.934Z,1748.00
2019-04-10T06:46:40.794Z,1760.00
2019-04-10T06:47:39.507Z,1792.00
2019-04-10T06:48:40.376Z,1864.00
2019-04-10T06:49:39.466Z,1988.00
2019-04-10T06:50:39.450Z,2132.00
2019-04-10T06:51:39.433Z,2260.00
2019-04-10T06:52:39.451Z,2384.00
2019-04-10T06:53:39.414Z,2508.00
2019-04-10T06:54:39.406Z,2624.00
2019-04-10T06:55:40.488Z,2752.00
2019-04-10T06:56:39.383Z,2864.00
2019-04-10T06:57:47.693Z,2952.00
2019-04-10T06:58:41.066Z,3036.00
2019-04-10T06:59:39.900Z,3104.00
2019-04-10T07:00:39.351Z,3168.00
2019-04-10T07:01:47.742Z,3224.00
2019-04-10T07:02:40.330Z,3280.00
2019-04-10T07:03:52.791Z,3344.00
2019-04-10T07:04:47.786Z,3408.00
2019-04-10T07:05:47.994Z,3472.00
2019-04-10T07:06:53.980Z,3528.00
2019-04-10T07:07:49.654Z,3584.00
2019-04-10T07:08:40.367Z,3628.00
2019-04-10T07:09:40.050Z,3660.00
2019-04-10T07:10:48.253Z,3620.00
2019-04-10T07:11:40.218Z,3580.00
2019-04-10T07:12:39.737Z,3644.00
2019-04-10T07:13:41.242Z,3716.00
2019-04-10T07:14:43.893Z,3744.00
2019-04-10T07:15:43.625Z,3720.00
2019-04-10T07:16:40.221Z,3688.00
2019-04-10T07:17:41.023Z,3652.00
2019-04-10T07:18:40.169Z,3616.00
2019-04-10T07:19:41.533Z,3588.00
2019-04-10T07:20:40.043Z,3544.00
2019-04-10T07:21:39.124Z,3504.00
2019-04-10T07:22:44.636Z,3468.00
2019-04-10T07:23:40.729Z,3432.00
2019-04-10T07:24:42.211Z,3408.00
2019-04-10T07:25:40.322Z,3376.00
2019-04-10T07:26:43.415Z,3364.00
2019-04-10T07:27:41.682Z,3368.00
2019-04-10T07:28:43.612Z,3372.00
2019-04-10T07:29:40.424Z,3384.00
2019-04-10T07:30:40.045Z,3404.00
2019-04-10T07:31:39.756Z,3428.00
2019-04-10T07:32:43.317Z,3448.00
2019-04-10T07:33:40.576Z,3440.00
2019-04-10T07:34:38.981Z,3432.00
2019-04-10T07:35:40.164Z,3412.00
2019-04-10T07:36:41.677Z,3380.00
2019-04-10T07:37:38.962Z,3356.00
2019-04-10T07:38:39.272Z,3320.00
2019-04-10T07:39:39.562Z,3272.00
2019-04-10T07:40:38.911Z,3220.00
2019-04-10T07:41:39.715Z,3136.00
2019-04-10T07:42:41.887Z,3076.00
2019-04-10T07:43:38.881Z,3020.00
2019-04-10T07:44:38.881Z,2960.00
2019-04-10T07:45:38.857Z,2920.00
2019-04-10T07:46:38.895Z,2852.00
2019-04-10T07:47:39.889Z,2808.00
2019-04-10T07:48:38.827Z,2736.00
2019-04-10T07:49:39.635Z,2652.00
2019-04-10T07:50:39.038Z,2624.00
2019-04-10T07:51:38.958Z,2552.00
2019-04-10T07:52:38.800Z,2472.00
2019-04-10T07:53:39.455Z,2444.00
2019-04-10T07:54:41.660Z,2436.00
2019-04-10T07:55:39.790Z,2428.00
2019-04-10T07:56:39.595Z,2380.00
2019-04-10T07:57:38.756Z,2340.00
2019-04-10T07:58:39.845Z,2252.00
2019-04-10T07:59:38.717Z,2116.00
2019-04-10T08:00:38.704Z,2088.00
2019-04-10T08:01:40.454Z,2260.00
2019-04-10T08:02:38.690Z,2420.00
2019-04-10T08:03:39.581Z,2484.00
2019-04-10T08:04:39.527Z,2504.00
2019-04-10T08:05:38.641Z,2540.00
2019-04-10T08:06:39.546Z,2608.00
2019-04-10T08:07:40.199Z,2736.00
2019-04-10T08:08:38.608Z,2792.00
2019-04-10T08:09:38.607Z,2784.00
2019-04-10T08:10:38.588Z,2656.00
2019-04-10T08:11:38.586Z,2648.00
2019-04-10T08:12:46.025Z,2744.00
2019-04-10T08:13:40.617Z,2876.00
2019-04-10T08:14:38.543Z,2924.00
2019-04-10T08:15:38.535Z,2964.00
2019-04-10T08:16:39.406Z,2968.00
2019-04-10T08:17:38.995Z,2908.00
2019-04-10T08:18:39.446Z,2940.00
2019-04-10T08:19:39.079Z,3112.00
2019-04-10T08:20:38.529Z,3312.00
2019-04-10T08:21:38.480Z,3480.00
2019-04-10T08:22:39.292Z,3576.00
2019-04-10T08:23:38.450Z,3692.00
2019-04-10T08:24:38.569Z,3804.00
2019-04-10T08:25:38.786Z,3868.00
2019-04-10T08:26:38.842Z,3916.00
2019-04-10T08:27:38.600Z,3972.00
2019-04-10T08:28:38.403Z,4044.00
2019-04-10T08:29:39.424Z,4060.00
2019-04-10T08:30:38.382Z,4140.00
2019-04-10T08:31:39.543Z,4164.00
2019-04-10T08:32:50.889Z,4224.00
2019-04-10T08:33:39.369Z,4284.00
2019-04-10T08:34:38.329Z,4328.00
2019-04-10T08:35:38.331Z,4336.00
2019-04-10T08:36:39.391Z,4304.00
2019-04-10T08:37:39.064Z,4296.00
2019-04-10T08:38:38.307Z,4376.00
2019-04-10T08:39:43.451Z,4436.00
2019-04-10T08:40:40.427Z,4492.00
2019-04-10T08:41:38.365Z,4556.00
2019-04-10T08:42:40.237Z,4640.00
2019-04-10T08:43:38.255Z,4732.00
2019-04-10T08:44:38.372Z,4812.00
2019-04-10T08:45:46.375Z,4884.00
2019-04-10T08:46:39.200Z,4996.00
2019-04-10T08:47:38.192Z,5160.00
2019-04-10T08:48:39.202Z,5312.00
2019-04-10T08:49:38.998Z,5472.00
2019-04-10T08:50:38.530Z,5608.00
2019-04-10T08:51:38.151Z,5708.00
2019-04-10T08:52:39.080Z,5884.00
2019-04-10T08:53:38.343Z,6024.00
2019-04-10T08:54:38.383Z,6176.00
2019-04-10T08:55:38.105Z,6320.00
2019-04-10T08:56:38.717Z,6380.00
2019-04-10T08:57:38.301Z,6440.00
2019-04-10T08:58:39.083Z,6484.00
2019-04-10T08:59:38.327Z,6500.00
2019-04-10T09:00:38.058Z,6496.00
2019-04-10T09:01:38.040Z,6448.00
2019-04-10T09:02:38.221Z,6420.00
2019-04-10T09:03:39.159Z,6464.00
2019-04-10T09:04:38.020Z,6520.00
2019-04-10T09:05:38.005Z,6556.00
2019-04-10T09:06:37.984Z,6572.00
2019-04-10T09:07:38.262Z,6604.00
2019-04-10T09:08:39.106Z,6636.00
2019-04-10T09:09:37.954Z,6632.00
2019-04-10T09:10:38.518Z,6600.00
2019-04-10T09:11:37.946Z,6596.00
2019-04-10T09:12:38.949Z,6576.00
2019-04-10T09:13:38.856Z,6604.00
2019-04-10T09:14:38.156Z,6624.00
2019-04-10T09:15:38.210Z,6600.00
2019-04-10T09:16:38.559Z,6580.00
2019-04-10T09:17:37.866Z,6576.00
2019-04-10T09:18:39.013Z,6596.00
2019-04-10T09:19:38.155Z,6604.00
2019-04-10T09:20:38.499Z,6440.00
2019-04-10T09:21:38.816Z,6328.00
2019-04-10T09:22:58.014Z,6224.00
2019-04-10T09:23:46.723Z,6280.00
2019-04-10T09:24:38.807Z,6276.00
2019-04-10T09:25:37.783Z,6116.00
2019-04-10T09:26:38.267Z,5864.00
2019-04-10T09:27:37.962Z,5520.00
2019-04-10T09:28:38.322Z,5220.00
2019-04-10T09:29:38.276Z,5240.00
2019-04-10T09:30:37.727Z,5304.00
2019-04-10T09:31:37.868Z,5064.00
2019-04-10T09:32:38.905Z,4912.00
2019-04-10T09:33:38.949Z,5032.00
2019-04-10T09:34:38.013Z,5000.00
2019-04-10T09:35:38.454Z,4640.00
2019-04-10T09:36:37.660Z,4764.00
2019-04-10T09:37:37.964Z,4948.00
2019-04-10T09:38:37.651Z,5208.00
2019-04-10T09:39:37.630Z,5760.00
2019-04-10T09:40:38.372Z,6120.00
2019-04-10T09:41:38.290Z,6200.00
2019-04-10T09:42:37.626Z,6256.00
2019-04-10T09:43:37.976Z,6116.00
2019-04-10T09:44:37.978Z,5896.00
2019-04-10T09:45:37.568Z,5932.00
2019-04-10T09:46:37.558Z,6168.00
2019-04-10T09:47:37.552Z,6248.00
2019-04-10T09:48:37.968Z,6252.00
2019-04-10T09:49:41.965Z,6360.00
2019-04-10T09:50:39.558Z,6548.00
2019-04-10T09:51:38.312Z,6712.00
2019-04-10T09:52:37.655Z,6908.00
2019-04-10T09:53:37.505Z,7116.00
2019-04-10T09:54:38.228Z,7292.00
2019-04-10T09:55:38.340Z,7420.00
2019-04-10T09:56:38.480Z,7424.00
2019-04-10T09:57:37.434Z,7340.00
2019-04-10T09:58:37.437Z,7236.00
2019-04-10T09:59:39.649Z,7152.00
2019-04-10T10:00:38.158Z,7196.00
2019-04-10T10:01:37.971Z,7320.00
2019-04-10T10:02:37.959Z,7608.00
2019-04-10T10:03:37.382Z,8072.00
2019-04-10T10:04:37.656Z,8592.00
2019-04-10T10:05:37.352Z,9288.00
2019-04-10T10:06:38.439Z,10000.00
2019-04-10T10:07:37.330Z,10568.00
2019-04-10T10:08:37.347Z,10936.00
2019-04-10T10:09:37.308Z,11588.00
2019-04-10T10:10:38.448Z,11844.00
2019-04-10T10:11:38.478Z,11848.00
2019-04-10T10:12:38.530Z,12048.00
2019-04-10T10:13:37.429Z,11972.00
2019-04-10T10:14:38.060Z,11532.00
2019-04-10T10:15:37.683Z,11268.00
2019-04-10T10:16:37.230Z,11272.00
2019-04-10T10:17:37.221Z,10940.00
2019-04-10T10:18:37.389Z,11212.00
2019-04-10T10:19:39.169Z,11220.00
2019-04-10T10:20:37.689Z,11392.00
2019-04-10T10:21:37.181Z,12032.00
2019-04-10T10:22:37.185Z,12688.00
2019-04-10T10:23:38.083Z,12928.00
2019-04-10T10:24:37.150Z,12840.00
2019-04-10T10:25:37.455Z,12152.00
2019-04-10T10:26:37.126Z,11112.00
2019-04-10T10:27:37.117Z,10764.00
2019-04-10T10:28:37.444Z,10420.00
2019-04-10T10:29:37.654Z,10016.00
2019-04-10T10:30:37.700Z,9092.00
2019-04-10T10:31:38.041Z,8260.00
2019-04-10T10:32:37.229Z,7692.00
2019-04-10T10:33:37.582Z,7076.00
2019-04-10T10:34:37.049Z,6572.00
2019-04-10T10:35:37.025Z,6304.00
2019-04-10T10:36:43.031Z,6324.00
2019-04-10T10:37:38.829Z,6496.00
2019-04-10T10:38:37.066Z,6500.00
2019-04-10T10:39:37.175Z,6460.00
2019-04-10T10:40:36.978Z,6844.00
2019-04-10T10:41:36.967Z,7496.00
2019-04-10T10:42:38.591Z,8360.00
2019-04-10T10:43:36.944Z,8948.00
2019-04-10T10:44:36.935Z,9240.00
2019-04-10T10:45:36.917Z,9788.00
2019-04-10T10:46:37.732Z,10668.00
2019-04-10T10:47:38.003Z,11428.00
2019-04-10T10:48:37.922Z,11348.00
2019-04-10T10:49:36.890Z,10608.00
2019-04-10T10:50:37.278Z,10116.00
2019-04-10T10:51:37.060Z,9852.00
2019-04-10T10:52:36.844Z,9040.00
2019-04-10T10:53:36.832Z,8312.00
2019-04-10T10:54:36.998Z,7952.00
2019-04-10T10:55:37.904Z,7808.00
2019-04-10T10:56:36.799Z,8084.00
2019-04-10T10:57:37.487Z,7900.00
2019-04-10T10:58:37.567Z,7728.00
2019-04-10T10:59:37.653Z,8212.00
2019-04-10T11:00:36.784Z,8500.00
2019-04-10T11:01:37.956Z,8156.00
2019-04-10T11:02:37.858Z,8488.00
2019-04-10T11:03:36.722Z,9144.00
2019-04-10T11:04:37.735Z,9076.00
2019-04-10T11:05:37.146Z,9140.00
2019-04-10T11:06:49.797Z,9700.00
2019-04-10T11:07:38.801Z,9936.00
2019-04-10T11:08:37.315Z,10248.00
2019-04-10T11:09:37.040Z,10628.00
2019-04-10T11:10:36.651Z,10540.00
2019-04-10T11:11:37.048Z,9860.00
2019-04-10T11:12:38.221Z,9864.00
2019-04-10T11:13:37.142Z,9888.00
2019-04-10T11:14:37.151Z,10148.00
2019-04-10T11:15:40.942Z,9964.00
2019-04-10T11:16:38.984Z,10020.00
2019-04-10T11:17:38.171Z,10952.00
2019-04-10T11:18:36.565Z,11364.00
2019-04-10T11:19:37.122Z,11252.00
2019-04-10T11:20:36.538Z,11352.00
2019-04-10T11:21:36.530Z,11916.00
2019-04-10T11:22:37.676Z,12768.00
2019-04-10T11:23:37.571Z,13252.00
2019-04-10T11:24:38.289Z,13468.00
2019-04-10T11:25:37.727Z,13832.00
2019-04-10T11:26:37.585Z,14064.00
2019-04-10T11:27:36.470Z,14576.00
2019-04-10T11:28:36.872Z,15252.00
2019-04-10T11:29:37.668Z,15548.00
2019-04-10T11:30:36.432Z,15596.00
2019-04-10T11:31:38.205Z,15632.00
2019-04-10T11:32:36.954Z,15872.00
2019-04-10T11:33:37.310Z,15916.00
2019-04-10T11:34:36.401Z,15644.00
2019-04-10T11:35:37.373Z,15104.00
2019-04-10T11:36:36.370Z,14556.00
2019-04-10T11:38:37.516Z,13744.00
2019-04-10T11:39:40.426Z,13276.00
2019-04-10T11:40:37.327Z,12556.00
2019-04-10T11:41:37.365Z,11664.00
2019-04-10T11:42:37.146Z,10844.00
2019-04-10T11:43:37.707Z,9616.00
2019-04-10T11:44:36.757Z,8800.00
2019-04-10T11:45:43.090Z,8520.00
2019-04-10T11:46:38.700Z,8608.00
2019-04-10T11:47:36.481Z,8860.00
2019-04-10T11:48:36.669Z,8680.00
2019-04-10T11:49:40.063Z,7584.00
2019-04-10T11:50:38.551Z,6456.00
2019-04-10T11:51:38.747Z,5788.00
2019-04-10T11:52:40.287Z,5460.00
2019-04-10T11:54:41.088Z,5168.00
2019-04-10T11:55:43.794Z,5568.00
2019-04-10T11:56:38.437Z,6216.00
2019-04-10T11:57:37.314Z,6560.00
2019-04-10T11:58:47.333Z,6956.00
2019-04-10T11:59:38.968Z,7104.00
2019-04-10T12:00:46.420Z,7168.00
2019-04-10T12:01:39.209Z,7520.00
2019-04-10T12:02:37.070Z,8276.00
2019-04-10T12:03:37.132Z,9520.00
2019-04-10T12:05:38.638Z,10816.00
2019-04-10T12:06:37.740Z,11068.00
2019-04-10T12:08:04.750Z,11228.00
2019-04-10T12:09:03.789Z,11724.00
2019-04-10T12:11:37.187Z,13644.00
2019-04-10T12:12:35.977Z,13776.00
2019-04-10T12:13:36.564Z,13736.00
2019-04-10T12:14:35.963Z,12928.00
2019-04-10T12:15:36.491Z,12456.00
2019-04-10T12:16:36.862Z,12364.00
2019-04-10T12:17:36.108Z,14696.00
2019-04-10T12:18:35.914Z,15124.00
2019-04-10T12:19:36.187Z,14488.00
2019-04-10T12:20:35.904Z,13316.00
2019-04-10T12:21:35.883Z,13088.00
2019-04-10T12:22:35.922Z,13068.00
2019-04-10T12:23:36.878Z,12640.00
2019-04-10T12:24:36.344Z,11948.00
2019-04-10T12:25:36.639Z,11972.00
2019-04-10T12:26:36.003Z,11796.00
2019-04-10T12:27:36.899Z,10924.00
2019-04-10T12:28:36.082Z,10404.00
2019-04-10T12:29:35.795Z,10928.00
2019-04-10T12:30:35.800Z,11412.00
2019-04-10T12:31:36.422Z,11620.00
2019-04-10T12:32:36.679Z,11888.00
2019-04-10T12:33:35.957Z,11700.00
2019-04-10T12:34:36.190Z,10972.00
2019-04-10T12:35:36.063Z,10924.00
2019-04-10T12:36:36.416Z,11384.00